PAX377 FIMP-FMEE
Flight info
| Callsign | PAX377 |
|---|---|
| Flight time | 0h 34m |
| Altitude | 20000 |
| Route | ESTEK DCT MP531 DCT GENOV DCT MP612 DCT MP224 DCT SOBAT SOBAT2R |
| Aircraft | A332/H-SDE3GHIJ2J3J5M1RVWXY/LB2D1 |
Departure
| Time | 2026-04-24 08:51 |
|---|---|
| Airport | Sir Seewoosagur Ramgoolam International Airport (FIMP) |
Arrival
| Time | 2026-04-24 09:26 |
|---|---|
| Airport | Roland Garros Airport (FMEE) |
| Time | Latitude | Longitude | Altitude | Speed | Heading |
|---|---|---|---|---|---|
| 2026-04-24 08:27 | -20.42669 | 57.67470 | 198 ft | 0 kts | 309° |
| 2026-04-24 08:33 | -20.42667 | 57.67467 | 198 ft | 2 kts | 296° |
| 2026-04-24 08:33 | -20.42661 | 57.67443 | 199 ft | 7 kts | 279° |
| 2026-04-24 08:34 | -20.42660 | 57.67433 | 199 ft | 0 kts | 277° |
| 2026-04-24 08:35 | -20.42659 | 57.67426 | 200 ft | 4 kts | 275° |
| 2026-04-24 08:36 | -20.42656 | 57.67382 | 202 ft | 7 kts | 276° |
| 2026-04-24 08:36 | -20.42633 | 57.67292 | 205 ft | 23 kts | 290° |
| 2026-04-24 08:36 | -20.42576 | 57.67164 | 210 ft | 28 kts | 293° |
| 2026-04-24 08:36 | -20.42475 | 57.66965 | 217 ft | 16 kts | 301° |
| 2026-04-24 08:37 | -20.42428 | 57.66893 | 220 ft | 7 kts | 2° |
| 2026-04-24 08:37 | -20.42378 | 57.66913 | 219 ft | 9 kts | 25° |
| 2026-04-24 08:37 | -20.42334 | 57.66952 | 216 ft | 3 kts | 142° |
| 2026-04-24 08:38 | -20.42335 | 57.66953 | 216 ft | 0 kts | 152° |
| 2026-04-24 08:38 | -20.42342 | 57.66957 | 216 ft | 2 kts | 153° |
| 2026-04-24 08:38 | -20.42351 | 57.66965 | 216 ft | 0 kts | 122° |
| 2026-04-24 08:38 | -20.42356 | 57.66974 | 215 ft | 1 kts | 118° |
| 2026-04-24 08:39 | -20.42361 | 57.66984 | 215 ft | 0 kts | 116° |
| 2026-04-24 08:51 | -20.42390 | 57.67048 | 212 ft | 41 kts | 117° |
| 2026-04-24 08:51 | -20.42677 | 57.67642 | 191 ft | 136 kts | 117° |
| 2026-04-24 08:51 | -20.43201 | 57.68745 | 435 ft | 190 kts | 118° |
| 2026-04-24 08:51 | -20.43895 | 57.70017 | 1248 ft | 200 kts | 121° |
| 2026-04-24 08:52 | -20.44526 | 57.71286 | 2016 ft | 203 kts | 118° |
| 2026-04-24 08:52 | -20.45604 | 57.72389 | 2502 ft | 219 kts | 153° |
| 2026-04-24 08:52 | -20.47141 | 57.72664 | 3046 ft | 237 kts | 185° |
| 2026-04-24 08:52 | -20.48771 | 57.72243 | 3784 ft | 247 kts | 193° |
| 2026-04-24 08:53 | -20.50514 | 57.71780 | 4556 ft | 264 kts | 190° |
| 2026-04-24 08:53 | -20.52332 | 57.71288 | 5460 ft | 274 kts | 202° |
| 2026-04-24 08:53 | -20.53865 | 57.70078 | 6447 ft | 283 kts | 229° |
| 2026-04-24 08:53 | -20.54779 | 57.68192 | 7456 ft | 290 kts | 255° |
| 2026-04-24 08:54 | -20.54840 | 57.66042 | 8431 ft | 297 kts | 281° |
| 2026-04-24 08:54 | -20.54048 | 57.64045 | 9380 ft | 301 kts | 304° |
| 2026-04-24 08:54 | -20.52880 | 57.62187 | 10377 ft | 305 kts | 301° |
| 2026-04-24 08:54 | -20.51852 | 57.60165 | 11386 ft | 309 kts | 295° |
| 2026-04-24 08:55 | -20.50984 | 57.58041 | 12394 ft | 313 kts | 291° |
| 2026-04-24 08:55 | -20.50186 | 57.55874 | 13408 ft | 317 kts | 290° |
| 2026-04-24 08:55 | -20.49441 | 57.53785 | 14344 ft | 322 kts | 290° |
| 2026-04-24 08:55 | -20.48625 | 57.51482 | 15338 ft | 326 kts | 290° |
| 2026-04-24 08:56 | -20.47922 | 57.49499 | 15941 ft | 333 kts | 290° |
| 2026-04-24 08:56 | -20.47053 | 57.46933 | 16074 ft | 332 kts | 283° |
| 2026-04-24 08:56 | -20.46871 | 57.44747 | 16101 ft | 330 kts | 266° |
| 2026-04-24 08:56 | -20.47187 | 57.42239 | 16116 ft | 346 kts | 257° |
| 2026-04-24 08:57 | -20.47729 | 57.39641 | 16125 ft | 381 kts | 256° |
| 2026-04-24 08:57 | -20.48374 | 57.36755 | 16124 ft | 418 kts | 256° |
| 2026-04-24 08:57 | -20.49058 | 57.33658 | 16117 ft | 438 kts | 256° |
| 2026-04-24 08:57 | -20.49743 | 57.30500 | 16105 ft | 439 kts | 256° |
| 2026-04-24 08:58 | -20.50427 | 57.27328 | 16102 ft | 439 kts | 256° |
| 2026-04-24 08:58 | -20.51102 | 57.24188 | 16102 ft | 439 kts | 256° |
| 2026-04-24 08:58 | -20.51783 | 57.21023 | 16102 ft | 439 kts | 256° |
| 2026-04-24 08:58 | -20.52465 | 57.17849 | 16102 ft | 439 kts | 256° |
| 2026-04-24 08:59 | -20.53118 | 57.14806 | 16102 ft | 439 kts | 256° |
| 2026-04-24 08:59 | -20.53791 | 57.11674 | 16102 ft | 439 kts | 256° |
| 2026-04-24 08:59 | -20.54473 | 57.08490 | 16102 ft | 439 kts | 256° |
| 2026-04-24 08:59 | -20.55158 | 57.05293 | 16102 ft | 439 kts | 256° |
| 2026-04-24 09:00 | -20.55827 | 57.02169 | 16102 ft | 439 kts | 256° |
| 2026-04-24 09:00 | -20.56512 | 56.98964 | 16102 ft | 439 kts | 256° |
| 2026-04-24 09:00 | -20.57191 | 56.95786 | 16102 ft | 439 kts | 256° |
| 2026-04-24 09:00 | -20.57867 | 56.92618 | 16102 ft | 439 kts | 256° |
| 2026-04-24 09:01 | -20.58534 | 56.89489 | 16102 ft | 439 kts | 256° |
| 2026-04-24 09:01 | -20.58786 | 56.88310 | 16102 ft | 439 kts | 256° |
| 2026-04-24 09:02 | -20.58831 | 56.88099 | 16102 ft | 439 kts | 256° |
| 2026-04-24 09:02 | -20.58876 | 56.87887 | 16102 ft | 439 kts | 256° |
| 2026-04-24 09:02 | -20.59455 | 56.85166 | 16102 ft | 439 kts | 256° |
| 2026-04-24 09:03 | -20.60127 | 56.82009 | 16102 ft | 439 kts | 256° |
| 2026-04-24 09:03 | -20.60797 | 56.78855 | 16102 ft | 439 kts | 256° |
| 2026-04-24 09:03 | -20.61474 | 56.75666 | 16102 ft | 439 kts | 256° |
| 2026-04-24 09:03 | -20.62148 | 56.72487 | 16102 ft | 439 kts | 256° |
| 2026-04-24 09:04 | -20.62790 | 56.69458 | 16102 ft | 439 kts | 256° |
| 2026-04-24 09:04 | -20.63464 | 56.66276 | 16102 ft | 439 kts | 256° |
| 2026-04-24 09:04 | -20.64131 | 56.63121 | 16102 ft | 439 kts | 256° |
| 2026-04-24 09:04 | -20.64801 | 56.59952 | 16102 ft | 439 kts | 256° |
| 2026-04-24 09:05 | -20.65295 | 56.57613 | 16102 ft | 439 kts | 256° |
| 2026-04-24 09:05 | -20.65747 | 56.55473 | 16111 ft | 439 kts | 256° |
| 2026-04-24 09:05 | -20.66415 | 56.52301 | 16135 ft | 440 kts | 256° |
| 2026-04-24 09:05 | -20.67087 | 56.49113 | 16140 ft | 440 kts | 256° |
| 2026-04-24 09:06 | -20.67737 | 56.46022 | 16142 ft | 440 kts | 256° |
| 2026-04-24 09:06 | -20.68407 | 56.42839 | 16143 ft | 440 kts | 256° |
| 2026-04-24 09:06 | -20.69088 | 56.39594 | 16144 ft | 440 kts | 256° |
| 2026-04-24 09:06 | -20.69757 | 56.36404 | 16145 ft | 440 kts | 256° |
| 2026-04-24 09:07 | -20.70424 | 56.33225 | 16146 ft | 440 kts | 256° |
| 2026-04-24 09:07 | -20.71085 | 56.30066 | 16145 ft | 433 kts | 256° |
| 2026-04-24 09:07 | -20.71806 | 56.23975 | 16141 ft | 401 kts | 269° |
| 2026-04-24 09:08 | -20.71752 | 56.21045 | 16142 ft | 386 kts | 271° |
| 2026-04-24 09:08 | -20.71661 | 56.18280 | 16137 ft | 366 kts | 271° |
| 2026-04-24 09:08 | -20.71581 | 56.15632 | 16136 ft | 347 kts | 271° |
| 2026-04-24 09:08 | -20.71516 | 56.13136 | 16016 ft | 334 kts | 270° |
| 2026-04-24 09:09 | -20.71456 | 56.10658 | 15463 ft | 335 kts | 270° |
| 2026-04-24 09:09 | -20.71398 | 56.08213 | 14971 ft | 334 kts | 270° |
| 2026-04-24 09:09 | -20.71338 | 56.05744 | 14474 ft | 333 kts | 270° |
| 2026-04-24 09:09 | -20.71280 | 56.03341 | 14188 ft | 325 kts | 270° |
| 2026-04-24 09:10 | -20.71220 | 56.00916 | 13925 ft | 316 kts | 270° |
| 2026-04-24 09:10 | -20.71163 | 55.98619 | 13570 ft | 312 kts | 270° |
| 2026-04-24 09:10 | -20.71105 | 55.96269 | 13085 ft | 312 kts | 270° |
| 2026-04-24 09:10 | -20.71048 | 55.93980 | 12704 ft | 308 kts | 270° |
| 2026-04-24 09:11 | -20.70991 | 55.91711 | 12335 ft | 308 kts | 270° |
| 2026-04-24 09:11 | -20.70934 | 55.89456 | 11974 ft | 307 kts | 270° |
| 2026-04-24 09:11 | -20.70876 | 55.87159 | 11617 ft | 307 kts | 270° |
| 2026-04-24 09:11 | -20.70819 | 55.84906 | 11267 ft | 306 kts | 270° |
| 2026-04-24 09:12 | -20.70761 | 55.82643 | 10893 ft | 306 kts | 270° |
| 2026-04-24 09:12 | -20.70703 | 55.80391 | 10521 ft | 305 kts | 270° |
| 2026-04-24 09:12 | -20.70644 | 55.78117 | 10145 ft | 305 kts | 270° |
| 2026-04-24 09:12 | -20.70585 | 55.75879 | 9772 ft | 302 kts | 270° |
| 2026-04-24 09:13 | -20.70527 | 55.73644 | 9396 ft | 300 kts | 270° |
| 2026-04-24 09:13 | -20.70469 | 55.71443 | 9022 ft | 298 kts | 270° |
| 2026-04-24 09:13 | -20.70410 | 55.69222 | 8642 ft | 295 kts | 270° |
| 2026-04-24 09:13 | -20.70354 | 55.67092 | 8275 ft | 293 kts | 270° |
| 2026-04-24 09:14 | -20.70294 | 55.64900 | 7894 ft | 291 kts | 271° |
| 2026-04-24 09:14 | -20.70222 | 55.62778 | 7522 ft | 289 kts | 271° |
| 2026-04-24 09:14 | -20.70147 | 55.60713 | 7158 ft | 287 kts | 271° |
| 2026-04-24 09:14 | -20.70065 | 55.58532 | 6771 ft | 285 kts | 271° |
| 2026-04-24 09:15 | -20.69987 | 55.56428 | 6395 ft | 283 kts | 271° |
| 2026-04-24 09:15 | -20.69909 | 55.54354 | 6022 ft | 281 kts | 271° |
| 2026-04-24 09:15 | -20.69830 | 55.52257 | 5643 ft | 279 kts | 271° |
| 2026-04-24 09:15 | -20.69752 | 55.50193 | 5268 ft | 278 kts | 271° |
| 2026-04-24 09:16 | -20.69675 | 55.48142 | 4893 ft | 276 kts | 271° |
| 2026-04-24 09:16 | -20.69598 | 55.46115 | 4521 ft | 275 kts | 271° |
| 2026-04-24 09:16 | -20.69522 | 55.44109 | 4151 ft | 274 kts | 271° |
| 2026-04-24 09:16 | -20.69444 | 55.42075 | 3774 ft | 272 kts | 271° |
| 2026-04-24 09:17 | -20.69366 | 55.40044 | 3395 ft | 271 kts | 271° |
| 2026-04-24 09:17 | -20.69290 | 55.38056 | 3167 ft | 263 kts | 271° |
| 2026-04-24 09:17 | -20.69216 | 55.36153 | 3124 ft | 247 kts | 271° |
| 2026-04-24 09:17 | -20.69148 | 55.34427 | 3131 ft | 227 kts | 271° |
| 2026-04-24 09:18 | -20.69085 | 55.32815 | 3146 ft | 203 kts | 271° |
| 2026-04-24 09:18 | -20.69030 | 55.31388 | 3129 ft | 192 kts | 271° |
| 2026-04-24 09:18 | -20.69067 | 55.29955 | 3105 ft | 190 kts | 252° |
| 2026-04-24 09:18 | -20.69793 | 55.28844 | 3123 ft | 184 kts | 211° |
| 2026-04-24 09:19 | -20.70994 | 55.28476 | 3139 ft | 179 kts | 179° |
| 2026-04-24 09:19 | -20.72225 | 55.28438 | 3130 ft | 179 kts | 179° |
| 2026-04-24 09:19 | -20.73470 | 55.28365 | 3125 ft | 179 kts | 181° |
| 2026-04-24 09:19 | -20.74709 | 55.28258 | 3125 ft | 179 kts | 182° |
| 2026-04-24 09:20 | -20.75959 | 55.28129 | 3125 ft | 179 kts | 183° |
| 2026-04-24 09:20 | -20.77603 | 55.28146 | 3107 ft | 175 kts | 156° |
| 2026-04-24 09:20 | -20.78256 | 55.28643 | 3120 ft | 174 kts | 129° |
| 2026-04-24 09:20 | -20.78797 | 55.29778 | 3138 ft | 174 kts | 112° |
| 2026-04-24 09:21 | -20.79277 | 55.30971 | 3127 ft | 174 kts | 115° |
| 2026-04-24 09:21 | -20.79787 | 55.32125 | 3116 ft | 166 kts | 116° |
| 2026-04-24 09:21 | -20.80291 | 55.33216 | 3115 ft | 163 kts | 116° |
| 2026-04-24 09:21 | -20.80801 | 55.34301 | 3124 ft | 163 kts | 117° |
| 2026-04-24 09:22 | -20.81307 | 55.35372 | 3124 ft | 163 kts | 117° |
| 2026-04-24 09:22 | -20.81824 | 55.36465 | 2961 ft | 163 kts | 117° |
| 2026-04-24 09:22 | -20.82324 | 55.37524 | 2753 ft | 162 kts | 117° |
| 2026-04-24 09:22 | -20.82833 | 55.38599 | 2533 ft | 161 kts | 117° |
| 2026-04-24 09:23 | -20.83332 | 55.39656 | 2314 ft | 160 kts | 117° |
| 2026-04-24 09:23 | -20.83837 | 55.40725 | 2090 ft | 159 kts | 117° |
| 2026-04-24 09:23 | -20.84317 | 55.41740 | 1880 ft | 159 kts | 117° |
| 2026-04-24 09:23 | -20.84829 | 55.42823 | 1655 ft | 159 kts | 117° |
| 2026-04-24 09:24 | -20.85318 | 55.43859 | 1426 ft | 149 kts | 117° |
| 2026-04-24 09:24 | -20.85761 | 55.44798 | 1252 ft | 137 kts | 117° |
| 2026-04-24 09:24 | -20.86179 | 55.45683 | 1052 ft | 131 kts | 117° |
| 2026-04-24 09:24 | -20.86541 | 55.46451 | 911 ft | 132 kts | 117° |
| 2026-04-24 09:25 | -20.86792 | 55.46981 | 802 ft | 131 kts | 117° |
| 2026-04-24 09:25 | -20.87209 | 55.47866 | 622 ft | 131 kts | 117° |
| 2026-04-24 09:25 | -20.87613 | 55.48721 | 448 ft | 130 kts | 117° |
| 2026-04-24 09:25 | -20.87970 | 55.49479 | 296 ft | 130 kts | 117° |
| 2026-04-24 09:26 | -20.88377 | 55.50341 | 123 ft | 130 kts | 117° |
| 2026-04-24 09:26 | -20.88754 | 55.51148 | 66 ft | 102 kts | 116° |
| 2026-04-24 09:26 | -20.88981 | 55.51629 | 72 ft | 44 kts | 117° |
| 2026-04-24 09:26 | -20.89074 | 55.51821 | 73 ft | 24 kts | 117° |
| 2026-04-24 09:27 | -20.89146 | 55.51974 | 74 ft | 22 kts | 116° |
| 2026-04-24 09:27 | -20.89208 | 55.52106 | 75 ft | 17 kts | 117° |
| 2026-04-24 09:27 | -20.89253 | 55.52200 | 76 ft | 11 kts | 128° |
| 2026-04-24 09:27 | -20.89307 | 55.52232 | 79 ft | 7 kts | 200° |
| 2026-04-24 09:28 | -20.89344 | 55.52215 | 82 ft | 7 kts | 208° |
| 2026-04-24 09:28 | -20.89394 | 55.52177 | 86 ft | 16 kts | 227° |
| 2026-04-24 09:28 | -20.89358 | 55.52063 | 87 ft | 18 kts | 306° |
| 2026-04-24 09:28 | -20.89315 | 55.51977 | 86 ft | 8 kts | 292° |
| 2026-04-24 09:29 | -20.89305 | 55.51952 | 86 ft | 0 kts | 293° |
| 2026-04-24 09:29 | -20.89305 | 55.51951 | 86 ft | 1 kts | 293° |
| 2026-04-24 09:29 | -20.89290 | 55.51913 | 86 ft | 15 kts | 292° |
| 2026-04-24 09:29 | -20.89249 | 55.51753 | 87 ft | 32 kts | 246° |
| 2026-04-24 09:30 | -20.89323 | 55.51720 | 93 ft | 0 kts | 130° |
| 2026-04-24 09:31 | -20.89322 | 55.51720 | 93 ft | 0 kts | 136° |